Ana Sayfa
METAR-TAF:

METAR-TAF

Havaalanları :

Dumas, Teksas, Amerika Birleşik Devletleri

Enlem: 35-51-28N, Boylam: 102-00-47W, yükseklik: 1129 m

Güncel hava durumu gözlemi

Rapor saat 00:35 UTC de 34 dakika önce yapıldı.
Rüzgar güneydan 12 kt
Sıcaklık 36°C
Nem 15%
Basınç 1020 hPa
Görüş mesafesi: 16.1 km
Açık gökyüzü

METAR: KDUX 140035Z AUTO 17012KT 10SM CLR 36/05 A3011 RMK AO2 T03550047

Saat: 20:09 (01:09 UTC)


TAF: eksik

4.000'den fazla havaalanı için hava durumu gözlemleri ve tahminleri (METAR ve TAF raporları).

Kullanılabilir istasyonlar harita üzerinde sarı ve kırmızı noktalarla gösterilir.

İstasyonun adını görmek için fareyi noktanın üzerinde gezdirin.

Sonrasında hava gözlem ve tahminlerini görmek için tıklayın.

Haritayı değiştirmek için: yaklaştırmak için siyah artı işaretli yeşil düğmeye ve uzaklaştırmak için de eksi işaretli düğmeye hızla tıklayın; bitişik haritalar için yeşil okları kullanın.


METAR-TAF: